Time;durP1;ratioP1;P1;durP2;ratioP2;P2;SDS_P1;SDS_P2;PMS_P1;PMS_P2;Temp;Humidity;BMP_temperature;BMP_pressure;BME280_temperature;BME280_humidity;BME280_pressure;Samples;Min_cycle;Max_cycle;Signal;HPM_P1;HPM_P2
2023/01/10 00:00:03;;;;;;;19.15;6.95;;;;;;;7.00;100.00;99937.09;5206219;28;20022;-77
2023/01/10 00:02:33;;;;;;;13.15;7.30;;;;;;;6.99;100.00;99945.81;5205410;28;20057;-77
2023/01/10 00:05:04;;;;;;;20.75;7.57;;;;;;;7.02;100.00;99953.50;5200370;28;20029;-77
2023/01/10 00:07:35;;;;;;;19.85;7.63;;;;;;;7.11;100.00;99954.06;5207357;28;20032;-77
2023/01/10 00:10:06;;;;;;;13.73;6.88;;;;;;;7.01;100.00;99957.84;5209281;28;20029;-76
2023/01/10 00:15:25;;;;;;;16.80;7.43;;;;;;;7.02;100.00;99963.88;5202123;28;20091;-77
2023/01/10 00:17:55;;;;;;;17.88;7.65;;;;;;;6.99;100.00;99971.78;5206659;28;20037;-77
2023/01/10 00:20:26;;;;;;;14.48;7.20;;;;;;;7.00;100.00;99970.88;5205855;28;20037;-77
2023/01/10 00:22:56;;;;;;;15.25;6.72;;;;;;;7.04;100.00;99982.88;5201587;28;20033;-77
2023/01/10 00:25:26;;;;;;;14.38;6.80;;;;;;;7.00;100.00;99982.13;5204129;28;20087;-76
2023/01/10 00:30:53;;;;;;;19.33;7.25;;;;;;;6.98;100.00;99998.66;5207364;28;20079;-77
2023/01/10 00:33:24;;;;;;;20.17;6.80;;;;;;;7.03;100.00;99999.34;5200076;28;20061;-77
2023/01/10 00:35:54;;;;;;;19.80;7.82;;;;;;;6.99;100.00;100010.75;5200651;28;20441;-77
2023/01/10 00:38:24;;;;;;;20.83;7.30;;;;;;;6.97;100.00;100015.97;5204123;28;20038;-77
2023/01/10 00:40:55;;;;;;;16.42;6.55;;;;;;;6.92;100.00;100017.84;5206027;28;20399;-77
2023/01/10 00:46:13;;;;;;;13.75;6.07;;;;;;;6.96;100.00;100021.22;5203052;28;20055;-77
2023/01/10 00:48:44;;;;;;;12.70;6.07;;;;;;;6.91;100.00;100025.72;5204699;28;20368;-77
2023/01/10 00:51:14;;;;;;;16.25;6.28;;;;;;;6.95;100.00;100027.31;5209477;28;20037;-77
2023/01/10 00:53:44;;;;;;;15.88;6.40;;;;;;;6.97;100.00;100033.31;5200582;28;20013;-77
2023/01/10 00:56:15;;;;;;;17.27;6.85;;;;;;;6.92;100.00;100036.03;5201764;28;20021;-77
2023/01/10 00:58:45;;;;;;;16.60;5.82;;;;;;;6.95;100.00;100041.13;5203806;28;20159;-77
2023/01/10 01:01:15;;;;;;;13.90;6.00;;;;;;;7.00;100.00;100041.00;5200467;28;20615;-77
2023/01/10 01:03:46;;;;;;;18.27;6.70;;;;;;;6.98;100.00;100046.28;5198172;28;20175;-77
2023/01/10 01:06:16;;;;;;;13.20;5.90;;;;;;;7.16;100.00;100044.84;5188596;28;20143;-76
2023/01/10 01:08:47;;;;;;;14.75;6.03;;;;;;;7.08;100.00;100046.84;5198435;28;20078;-77
2023/01/10 01:11:17;;;;;;;11.80;6.00;;;;;;;7.10;100.00;100052.84;5201763;28;20025;-77
2023/01/10 01:13:47;;;;;;;15.40;6.38;;;;;;;7.06;100.00;100051.22;5209326;28;20398;-77
2023/01/10 01:16:18;;;;;;;14.30;6.35;;;;;;;6.99;100.00;100063.56;5205809;28;20037;-77
2023/01/10 01:18:48;;;;;;;14.38;6.65;;;;;;;7.10;100.00;100060.63;5209209;28;20033;-77
2023/01/10 01:21:20;;;;;;;15.15;7.05;;;;;;;7.06;100.00;100069.41;5204109;28;20033;-77
2023/01/10 01:23:50;;;;;;;14.68;6.43;;;;;;;7.01;100.00;100077.34;5209355;28;20063;-77
2023/01/10 01:26:22;;;;;;;16.45;6.68;;;;;;;6.93;100.00;100094.88;5206893;28;20514;-77
2023/01/10 01:28:53;;;;;;;14.25;7.00;;;;;;;6.98;100.00;100099.94;5204642;28;20498;-77
2023/01/10 01:31:23;;;;;;;17.42;6.82;;;;;;;6.86;100.00;100102.88;5203866;28;20029;-77
2023/01/10 01:33:53;;;;;;;13.98;6.57;;;;;;;6.89;100.00;100102.78;5203987;28;20120;-77
2023/01/10 01:36:24;;;;;;;17.30;6.25;;;;;;;6.98;100.00;100113.81;5206258;28;20017;-77
2023/01/10 01:38:54;;;;;;;10.85;5.93;;;;;;;6.91;100.00;100119.22;5211001;28;20485;-77
2023/01/10 01:44:16;;;;;;;12.13;6.72;;;;;;;6.92;100.00;100133.91;5209162;28;20106;-77
2023/01/10 01:46:54;;;;;;;14.05;7.03;;;;;;;6.99;100.00;100136.28;5204268;28;20031;-77
2023/01/10 01:49:25;;;;;;;15.40;7.07;;;;;;;7.09;100.00;100132.50;5203946;28;20116;-77
2023/01/10 01:52:01;;;;;;;14.40;7.22;;;;;;;7.07;100.00;100134.31;5206165;28;20100;-77
2023/01/10 01:54:33;;;;;;;14.45;6.95;;;;;;;7.01;100.00;100138.81;5213092;28;20033;-77
2023/01/10 01:57:13;;;;;;;17.20;7.60;;;;;;;7.00;100.00;100144.91;5209899;28;20029;-77
2023/01/10 01:59:48;;;;;;;15.77;7.97;;;;;;;7.13;100.00;100148.88;5211372;28;20017;-77
2023/01/10 02:02:22;;;;;;;16.15;7.60;;;;;;;7.12;100.00;100157.56;5204123;28;20223;-77
2023/01/10 02:04:57;;;;;;;14.07;7.05;;;;;;;7.01;100.00;100168.25;5211595;28;20025;-76
2023/01/10 02:07:32;;;;;;;17.30;7.60;;;;;;;7.07;100.00;100159.44;5213425;28;20043;-77
2023/01/10 02:10:16;;;;;;;12.93;7.18;;;;;;;6.97;100.00;100168.38;5209647;28;20108;-77
2023/01/10 02:12:50;;;;;;;15.23;7.15;;;;;;;6.96;100.00;100171.88;5207230;28;20128;-77
2023/01/10 02:15:21;;;;;;;13.80;7.65;;;;;;;6.99;100.00;100176.97;5214068;28;20438;-77
2023/01/10 02:17:51;;;;;;;14.80;7.78;;;;;;;6.90;100.00;100180.69;5210860;28;20083;-77
2023/01/10 02:20:24;;;;;;;13.63;6.80;;;;;;;7.01;100.00;100185.59;5207133;28;20017;-77
2023/01/10 02:23:29;;;;;;;16.38;7.43;;;;;;;6.98;100.00;100190.88;5210572;28;20029;-77
2023/01/10 02:26:26;;;;;;;11.38;7.63;;;;;;;7.04;100.00;100196.75;5204260;28;20037;-77
2023/01/10 02:29:26;;;;;;;15.55;7.40;;;;;;;7.02;100.00;100206.34;5196043;28;20073;-77
2023/01/10 02:32:13;;;;;;;16.15;8.10;;;;;;;7.06;100.00;100209.69;5207738;28;20331;-77
2023/01/10 02:35:14;;;;;;;13.75;7.25;;;;;;;7.00;100.00;100209.84;5209246;28;20047;-77
2023/01/10 02:37:58;;;;;;;16.17;8.57;;;;;;;6.91;100.00;100215.31;5214225;28;20048;-77
2023/01/10 02:40:28;;;;;;;20.42;8.35;;;;;;;6.89;100.00;100217.94;5205318;28;20065;-77
2023/01/10 02:43:13;;;;;;;16.15;8.02;;;;;;;6.98;100.00;100211.66;5209584;28;20060;-76
2023/01/10 02:46:03;;;;;;;15.75;7.82;;;;;;;6.93;100.00;100216.97;5212681;28;20057;-77
2023/01/10 02:48:33;;;;;;;13.15;7.28;;;;;;;7.08;100.00;100219.16;5208589;28;20029;-76
2023/01/10 02:51:15;;;;;;;15.00;7.60;;;;;;;7.05;100.00;100224.44;5207055;28;20364;-77
2023/01/10 02:53:51;;;;;;;12.25;6.93;;;;;;;6.99;100.00;100226.34;5207478;28;20288;-76
2023/01/10 02:56:28;;;;;;;17.92;7.88;;;;;;;7.02;100.00;100226.25;5207012;28;20036;-77
2023/01/10 02:59:35;;;;;;;14.77;7.35;;;;;;;7.04;100.00;100233.13;5202696;28;20037;-76
2023/01/10 03:02:35;;;;;;;14.15;7.20;;;;;;;6.97;100.00;100239.34;5207040;28;20475;-76
2023/01/10 03:05:27;;;;;;;17.90;7.95;;;;;;;6.87;100.00;100234.44;5198786;28;20152;-77
2023/01/10 03:08:07;;;;;;;13.98;7.40;;;;;;;6.80;100.00;100244.13;5207249;28;20021;-77
2023/01/10 03:10:59;;;;;;;12.82;7.90;;;;;;;6.69;100.00;100251.38;5211046;28;20028;-77
2023/01/10 03:13:56;;;;;;;15.90;7.63;;;;;;;6.75;100.00;100253.78;5208718;28;20026;-77
2023/01/10 03:16:30;;;;;;;14.35;7.57;;;;;;;6.82;100.00;100257.97;5207580;28;20135;-77
2023/01/10 03:19:11;;;;;;;14.82;7.80;;;;;;;6.73;100.00;100267.72;5208546;28;20402;-77
2023/01/10 03:21:43;;;;;;;13.90;7.70;;;;;;;6.75;100.00;100269.38;5210790;28;20390;-77
2023/01/10 03:24:17;;;;;;;14.05;7.63;;;;;;;6.81;100.00;100273.56;5205355;28;20304;-77
2023/01/10 03:26:54;;;;;;;15.97;7.40;;;;;;;6.90;100.00;100276.78;5202181;28;20025;-77
2023/01/10 03:29:31;;;;;;;13.80;7.70;;;;;;;6.87;100.00;100283.78;5206594;28;20018;-77
2023/01/10 03:32:06;;;;;;;15.95;7.68;;;;;;;6.83;100.00;100284.75;5213232;28;20068;-77
2023/01/10 03:34:37;;;;;;;15.23;7.35;;;;;;;7.01;100.00;100297.28;5205921;28;20029;-77
2023/01/10 03:37:29;;;;;;;16.17;7.70;;;;;;;6.95;100.00;100300.06;5206949;28;20037;-76
2023/01/10 03:40:29;;;;;;;15.10;7.60;;;;;;;6.87;100.00;100312.34;5209192;28;20025;-76
2023/01/10 03:46:29;;;;;;;16.02;7.95;;;;;;;6.92;100.00;100326.94;5200940;28;20119;-77
2023/01/10 03:49:03;;;;;;;14.63;7.78;;;;;;;6.87;100.00;100327.94;5202675;28;20025;-76
2023/01/10 03:51:37;;;;;;;16.55;7.13;;;;;;;6.75;100.00;100334.28;5207258;28;20484;-76
2023/01/10 03:54:07;;;;;;;11.73;6.18;;;;;;;6.79;100.00;100346.31;5204496;28;20474;-77
2023/01/10 03:56:50;;;;;;;11.63;5.78;;;;;;;6.81;100.00;100346.28;5203508;28;20085;-77
2023/01/10 03:59:24;;;;;;;18.48;5.50;;;;;;;6.83;100.00;100355.75;5205763;28;20478;-76
2023/01/10 04:01:54;;;;;;;11.10;5.10;;;;;;;6.76;100.00;100359.38;5210639;28;20087;-77
2023/01/10 04:04:25;;;;;;;11.75;4.82;;;;;;;6.80;100.00;100363.59;5204059;28;20033;-77
2023/01/10 04:06:55;;;;;;;9.38;4.97;;;;;;;6.70;100.00;100358.66;5201873;28;20057;-76
2023/01/10 04:09:25;;;;;;;10.23;4.75;;;;;;;6.65;100.00;100373.50;5210795;28;20088;-77
2023/01/10 04:11:56;;;;;;;9.00;4.72;;;;;;;6.69;100.00;100375.13;5207802;28;20017;-77
2023/01/10 04:14:26;;;;;;;10.77;4.63;;;;;;;6.77;100.00;100373.22;5210372;28;20029;-76
2023/01/10 04:16:57;;;;;;;10.90;4.47;;;;;;;6.71;100.00;100373.34;5206232;28;20060;-77
2023/01/10 04:19:27;;;;;;;13.13;4.80;;;;;;;6.76;100.00;100376.72;5206259;28;20112;-77
2023/01/10 04:21:58;;;;;;;11.23;4.55;;;;;;;6.66;100.00;100395.97;5198175;28;20021;-77
2023/01/10 04:24:28;;;;;;;10.80;4.93;;;;;;;6.61;100.00;100392.63;5208774;28;20026;-77
2023/01/10 04:26:58;;;;;;;11.50;5.00;;;;;;;6.59;100.00;100391.81;5203023;28;20025;-77
2023/01/10 04:29:29;;;;;;;14.40;5.45;;;;;;;6.54;100.00;100401.44;5188434;28;20033;-77
2023/01/10 04:31:59;;;;;;;13.57;5.40;;;;;;;6.58;100.00;100405.69;5210435;28;20117;-77
2023/01/10 04:34:30;;;;;;;13.65;5.72;;;;;;;6.60;100.00;100416.91;5208517;28;20084;-75
2023/01/10 04:37:00;;;;;;;14.68;6.38;;;;;;;6.64;100.00;100413.34;5210029;28;20065;-76
2023/01/10 04:39:30;;;;;;;11.90;5.65;;;;;;;6.70;100.00;100414.06;5210414;28;20035;-78
2023/01/10 04:42:00;;;;;;;17.05;5.72;;;;;;;6.66;100.00;100424.53;5188696;28;20025;-77
2023/01/10 04:44:31;;;;;;;13.13;5.40;;;;;;;6.79;100.00;100421.63;5201280;28;20112;-77
2023/01/10 04:47:01;;;;;;;14.88;5.13;;;;;;;6.86;100.00;100432.72;5202315;28;20491;-77
2023/01/10 04:49:32;;;;;;;14.32;5.60;;;;;;;6.76;100.00;100429.47;5202766;28;20033;-77
2023/01/10 04:52:02;;;;;;;12.00;5.07;;;;;;;6.77;100.00;100441.56;5205784;28;20053;-76
2023/01/10 04:54:32;;;;;;;11.63;4.43;;;;;;;6.88;100.00;100443.94;5200570;28;20051;-76
2023/01/10 04:57:05;;;;;;;17.00;4.35;;;;;;;6.77;100.00;100438.16;5199310;28;20053;-76
2023/01/10 04:59:35;;;;;;;11.10;3.00;;;;;;;6.69;100.00;100448.69;5205276;28;20029;-77
2023/01/10 05:02:06;;;;;;;11.43;3.00;;;;;;;6.68;100.00;100447.00;5188566;28;20021;-76
2023/01/10 05:04:36;;;;;;;13.13;2.88;;;;;;;6.62;100.00;100460.09;5194797;28;20107;-77
2023/01/10 05:07:06;;;;;;;9.40;2.78;;;;;;;6.59;100.00;100467.09;5202527;28;20029;-76
2023/01/10 05:09:36;;;;;;;13.43;2.85;;;;;;;6.66;100.00;100468.66;5209632;28;20041;-74
2023/01/10 05:12:07;;;;;;;10.25;2.20;;;;;;;6.60;100.00;100481.78;5209971;28;20574;-76
2023/01/10 05:14:37;;;;;;;12.50;2.90;;;;;;;6.60;100.00;100477.44;5202938;28;20063;-76
2023/01/10 05:17:08;;;;;;;10.82;2.70;;;;;;;6.55;100.00;100481.00;5199297;28;20044;-77
2023/01/10 05:19:38;;;;;;;9.65;2.38;;;;;;;6.47;100.00;100475.16;5204359;28;20115;-77
2023/01/10 05:22:08;;;;;;;12.82;2.60;;;;;;;6.62;100.00;100480.03;5198810;28;20033;-77
2023/01/10 05:24:39;;;;;;;10.77;2.58;;;;;;;6.62;100.00;100486.03;5211239;28;20021;-77
2023/01/10 05:27:09;;;;;;;10.15;2.47;;;;;;;6.53;100.00;100496.66;5206970;28;20485;-77
2023/01/10 05:29:39;;;;;;;10.50;2.08;;;;;;;6.59;100.00;100501.69;5206218;28;20044;-77
2023/01/10 05:32:10;;;;;;;14.75;2.42;;;;;;;6.56;100.00;100504.34;5207277;28;20036;-76
2023/01/10 05:34:41;;;;;;;11.07;2.33;;;;;;;6.66;100.00;100515.41;5206395;28;20025;-77
2023/01/10 05:37:11;;;;;;;11.63;2.58;;;;;;;6.70;100.00;100522.25;5192126;28;20026;-76
2023/01/10 05:39:42;;;;;;;12.93;2.78;;;;;;;6.55;100.00;100528.63;5207756;28;20025;-77
2023/01/10 05:42:12;;;;;;;14.05;2.92;;;;;;;6.57;100.00;100526.00;5204653;28;20063;-77
2023/01/10 05:44:43;;;;;;;14.38;2.53;;;;;;;6.65;100.00;100529.28;5203297;28;20395;-76
2023/01/10 05:47:13;;;;;;;11.80;2.70;;;;;;;6.72;100.00;100530.84;5199245;28;20104;-75
2023/01/10 05:49:43;;;;;;;15.52;2.67;;;;;;;6.63;100.00;100525.88;5209364;28;20021;-76
2023/01/10 05:52:13;;;;;;;8.43;2.28;;;;;;;6.48;100.00;100532.22;5210647;28;20024;-76
2023/01/10 05:54:44;;;;;;;14.25;2.92;;;;;;;6.48;100.00;100527.03;5207394;28;20048;-76
2023/01/10 05:57:14;;;;;;;9.95;2.50;;;;;;;6.37;100.00;100538.50;5200904;28;20017;-76
2023/01/10 05:59:44;;;;;;;15.05;2.63;;;;;;;6.25;100.00;100549.13;5186965;28;20026;-76
2023/01/10 06:02:15;;;;;;;12.73;2.63;;;;;;;6.24;100.00;100557.78;5208736;28;20017;-76
2023/01/10 06:04:45;;;;;;;13.95;2.53;;;;;;;6.16;100.00;100562.25;5200763;28;20033;-77
2023/01/10 06:07:15;;;;;;;11.05;2.47;;;;;;;6.19;100.00;100560.47;5206655;28;20039;-77
2023/01/10 06:09:46;;;;;;;11.80;2.53;;;;;;;6.27;100.00;100568.13;5194181;28;20566;-76
2023/01/10 06:12:19;;;;;;;14.20;3.30;;;;;;;6.28;100.00;100567.22;5207363;28;20041;-76
2023/01/10 06:14:50;;;;;;;15.13;3.15;;;;;;;6.29;100.00;100572.38;5200372;28;20104;-76
2023/01/10 06:17:20;;;;;;;11.77;2.92;;;;;;;6.33;100.00;100579.25;5207230;28;20111;-77
2023/01/10 06:19:51;;;;;;;10.43;2.95;;;;;;;6.18;100.00;100578.63;5204787;28;20037;-76
2023/01/10 06:22:21;;;;;;;15.75;3.25;;;;;;;6.14;100.00;100585.66;5201748;28;20402;-76
2023/01/10 06:24:51;;;;;;;16.00;2.88;;;;;;;6.18;100.00;100594.22;5204244;28;20036;-76
2023/01/10 06:27:22;;;;;;;13.02;3.10;;;;;;;6.16;100.00;100593.38;5208915;28;20116;-77
2023/01/10 06:29:52;;;;;;;15.05;3.67;;;;;;;6.10;100.00;100606.47;5208604;28;20080;-76
2023/01/10 06:32:22;;;;;;;15.60;3.65;;;;;;;6.01;100.00;100611.78;5214503;28;20024;-76
2023/01/10 06:34:52;;;;;;;10.25;2.78;;;;;;;6.08;100.00;100613.44;5207103;28;20026;-76
2023/01/10 06:37:23;;;;;;;15.20;2.75;;;;;;;6.04;100.00;100620.41;5203715;28;20597;-77
2023/01/10 06:39:53;;;;;;;14.98;3.17;;;;;;;6.00;100.00;100620.47;5206232;28;20025;-76
2023/01/10 06:42:24;;;;;;;14.88;3.20;;;;;;;5.95;100.00;100627.47;5210446;28;20029;-76
2023/01/10 06:44:54;;;;;;;17.52;3.28;;;;;;;6.06;100.00;100646.31;5202515;28;20021;-76
2023/01/10 06:47:24;;;;;;;13.88;3.10;;;;;;;6.02;100.00;100642.91;5203481;28;20041;-77
2023/01/10 06:49:54;;;;;;;16.92;3.25;;;;;;;6.00;100.00;100641.22;5202335;28;20048;-76
2023/01/10 06:52:25;;;;;;;15.63;3.80;;;;;;;5.92;100.00;100654.31;5210871;28;20449;-76
2023/01/10 06:54:58;;;;;;;17.50;3.22;;;;;;;5.91;100.00;100659.53;5207754;28;20033;-76
2023/01/10 06:57:28;;;;;;;15.25;3.03;;;;;;;6.02;100.00;100666.25;5200738;28;20079;-75
2023/01/10 06:59:58;;;;;;;16.20;3.50;;;;;;;6.10;100.00;100663.53;5210244;28;20029;-78
2023/01/10 07:02:29;;;;;;;14.20;3.53;;;;;;;6.03;100.00;100664.50;5212321;28;20029;-76
2023/01/10 07:04:59;;;;;;;18.17;4.22;;;;;;;6.11;100.00;100665.25;5203941;28;20041;-77
2023/01/10 07:07:29;;;;;;;15.75;3.97;;;;;;;6.01;100.00;100666.28;5209294;28;20056;-76
2023/01/10 07:10:00;;;;;;;17.13;4.30;;;;;;;6.04;100.00;100672.28;5198563;28;20060;-76
2023/01/10 07:12:30;;;;;;;18.08;4.00;;;;;;;5.93;100.00;100681.09;5214250;28;20246;-76
2023/01/10 07:15:00;;;;;;;25.67;4.93;;;;;;;6.03;100.00;100682.66;5186469;28;20082;-76
2023/01/10 07:17:30;;;;;;;14.55;4.30;;;;;;;6.07;100.00;100689.53;5209999;28;20044;-76
2023/01/10 07:20:01;;;;;;;16.40;4.70;;;;;;;6.07;100.00;100689.53;5206712;28;20087;-77
2023/01/10 07:22:31;;;;;;;20.88;4.15;;;;;;;6.17;100.00;100696.28;5211176;28;20029;-77
2023/01/10 07:25:02;;;;;;;26.67;5.00;;;;;;;6.13;100.00;100713.66;5207524;28;20506;-77
2023/01/10 07:27:33;;;;;;;21.98;4.07;;;;;;;6.12;100.00;100716.25;5203954;28;20106;-74
2023/01/10 07:30:04;;;;;;;18.80;4.00;;;;;;;6.16;100.00;100715.31;5190493;28;20025;-76
2023/01/10 07:32:34;;;;;;;22.30;4.50;;;;;;;6.15;100.00;100717.06;5210580;28;20040;-75
2023/01/10 07:35:05;;;;;;;15.63;4.25;;;;;;;6.17;100.00;100723.09;5203922;28;20512;-76
2023/01/10 07:37:35;;;;;;;16.70;4.00;;;;;;;6.20;100.00;100724.75;5187536;28;20534;-75
2023/01/10 07:40:06;;;;;;;18.83;3.90;;;;;;;6.19;100.00;100720.47;5207349;28;20021;-76
2023/01/10 07:42:36;;;;;;;16.33;4.00;;;;;;;6.10;100.00;100734.44;5211778;28;20032;-75
2023/01/10 07:45:07;;;;;;;15.40;4.32;;;;;;;6.08;100.00;100740.53;5202678;28;20387;-76
2023/01/10 07:47:37;;;;;;;17.63;4.20;;;;;;;6.08;100.00;100748.31;5205980;28;20048;-76
2023/01/10 07:50:09;;;;;;;16.15;4.13;;;;;;;6.10;100.00;100742.22;5204033;28;20096;-75
2023/01/10 07:52:39;;;;;;;15.57;4.07;;;;;;;6.16;100.00;100747.31;5205083;28;20032;-76
2023/01/10 07:55:09;;;;;;;17.08;4.13;;;;;;;6.17;100.00;100762.00;5204940;28;20166;-76
2023/01/10 07:57:40;;;;;;;16.77;3.42;;;;;;;6.19;100.00;100761.97;5206515;28;20508;-76
2023/01/10 08:00:11;;;;;;;13.02;3.90;;;;;;;6.20;100.00;100764.56;5208049;28;20525;-75
2023/01/10 08:02:41;;;;;;;15.50;4.03;;;;;;;6.18;100.00;100765.44;5209500;28;20111;-74
2023/01/10 08:05:12;;;;;;;16.25;3.55;;;;;;;6.16;100.00;100767.22;5207270;28;20530;-75
2023/01/10 08:07:43;;;;;;;13.93;3.95;;;;;;;6.20;100.00;100763.69;5201556;28;20099;-77
2023/01/10 08:10:13;;;;;;;21.23;4.18;;;;;;;6.18;100.00;100770.63;5200505;28;20029;-76
2023/01/10 08:12:44;;;;;;;14.35;3.38;;;;;;;6.30;100.00;100770.47;5184950;28;20017;-76
2023/01/10 08:15:15;;;;;;;16.38;4.28;;;;;;;6.29;100.00;100779.13;5198094;28;20498;-76
2023/01/10 08:17:45;;;;;;;12.35;3.67;;;;;;;6.27;100.00;100770.50;5205591;28;20106;-77
2023/01/10 08:20:15;;;;;;;16.88;3.75;;;;;;;6.31;100.00;100777.38;5203994;28;20446;-76
2023/01/10 08:22:45;;;;;;;18.55;3.90;;;;;;;6.28;100.00;100775.66;5206253;28;20108;-76
2023/01/10 08:25:16;;;;;;;11.68;3.47;;;;;;;6.32;100.00;100779.09;5206781;28;20104;-75
2023/01/10 08:27:46;;;;;;;11.32;3.30;;;;;;;6.43;100.00;100778.03;5208290;28;20024;-76
2023/01/10 08:30:17;;;;;;;15.93;3.08;;;;;;;6.52;100.00;100777.03;5209490;28;20510;-77
2023/01/10 08:32:47;;;;;;;18.67;3.75;;;;;;;6.44;100.00;100776.31;5233963;22;20075;-72
2023/01/10 08:35:17;;;;;;;16.02;3.80;;;;;;;6.52;100.00;100782.22;5201081;28;20033;-71
2023/01/10 08:37:48;;;;;;;13.82;4.30;;;;;;;6.52;100.00;100787.41;5218314;28;20053;-72
2023/01/10 08:40:18;;;;;;;16.20;4.55;;;;;;;6.49;100.00;100792.66;5226538;28;20066;-74
2023/01/10 08:42:56;;;;;;;25.60;6.93;;;;;;;6.57;100.00;100790.81;5226616;28;20378;-75
2023/01/10 08:45:27;;;;;;;18.92;5.05;;;;;;;6.70;100.00;100798.38;5219257;28;20751;-74
2023/01/10 08:47:57;;;;;;;17.38;4.53;;;;;;;6.61;100.00;100797.66;5220014;28;20031;-74
2023/01/10 08:50:28;;;;;;;16.13;3.72;;;;;;;6.71;100.00;100800.09;5225500;28;20086;-75
2023/01/10 08:52:59;;;;;;;15.40;4.22;;;;;;;6.72;100.00;100806.13;5220408;28;20064;-72
2023/01/10 08:55:30;;;;;;;24.80;5.00;;;;;;;6.69;100.00;100812.25;5220630;28;20366;-74
2023/01/10 08:58:01;;;;;;;13.93;3.63;;;;;;;6.68;100.00;100817.44;5226766;28;20021;-74
2023/01/10 09:00:31;;;;;;;16.42;3.90;;;;;;;6.81;100.00;100824.16;5212298;28;20033;-74
2023/01/10 09:03:06;;;;;;;16.25;4.05;;;;;;;7.00;100.00;100820.38;5211741;28;20035;-74
2023/01/10 09:05:36;;;;;;;20.27;4.13;;;;;;;7.06;100.00;100828.91;5207467;28;21035;-72
2023/01/10 09:08:06;;;;;;;12.88;4.13;;;;;;;7.05;100.00;100824.59;5230176;28;21322;-72
2023/01/10 09:10:37;;;;;;;20.08;3.97;;;;;;;6.98;100.00;100829.94;5231095;28;20342;-74
2023/01/10 09:13:08;;;;;;;16.75;4.20;;;;;;;7.02;100.00;100831.59;5230107;28;20033;-71
2023/01/10 09:15:40;;;;;;;14.52;4.00;;;;;;;7.10;100.00;100827.13;5227619;28;20032;-72
2023/01/10 09:18:13;;;;;;;20.10;4.82;;;;;;;6.91;100.00;100838.72;5209179;28;20115;-71
2023/01/10 09:20:44;;;;;;;17.90;4.63;;;;;;;7.02;100.00;100829.84;5231856;28;20055;-72
2023/01/10 09:23:18;;;;;;;18.75;4.70;;;;;;;7.05;100.00;100834.13;5230046;28;20060;-73
2023/01/10 09:25:52;;;;;;;17.63;5.35;;;;;;;7.10;100.00;100824.53;5226310;28;20029;-72
2023/01/10 09:28:23;;;;;;;25.88;5.82;;;;;;;7.12;100.00;100827.97;5233371;28;20486;-73
2023/01/10 09:30:53;;;;;;;19.77;5.25;;;;;;;7.25;100.00;100826.88;5233193;28;20318;-72
2023/01/10 09:33:24;;;;;;;14.55;5.10;;;;;;;7.55;100.00;100827.97;5229409;28;20032;-74
2023/01/10 09:35:56;;;;;;;17.98;4.35;;;;;;;7.63;100.00;100823.50;5224896;28;20020;-74
2023/01/10 09:38:27;;;;;;;16.45;4.60;;;;;;;7.73;100.00;100817.22;5209916;28;20025;-72
2023/01/10 09:41:06;;;;;;;20.95;4.72;;;;;;;7.81;100.00;100827.47;5211928;28;20101;-72
2023/01/10 09:43:58;;;;;;;19.55;4.30;;;;;;;7.70;100.00;100832.88;5228649;28;20107;-74
2023/01/10 09:46:31;;;;;;;15.45;4.15;;;;;;;7.76;100.00;100835.38;5226482;28;20029;-74
2023/01/10 09:49:18;;;;;;;19.83;4.30;;;;;;;7.84;100.00;100833.47;5232671;28;20052;-74
2023/01/10 09:51:52;;;;;;;16.70;4.50;;;;;;;8.07;100.00;100838.19;5224596;28;20387;-74
2023/01/10 09:54:32;;;;;;;14.10;3.97;;;;;;;8.28;100.00;100845.56;5227687;28;20035;-74
2023/01/10 09:57:02;;;;;;;16.13;4.38;;;;;;;8.15;100.00;100849.28;5225558;28;20505;-75
2023/01/10 09:59:40;;;;;;;20.25;4.78;;;;;;;8.10;100.00;100857.22;5228123;28;20090;-74
2023/01/10 10:02:13;;;;;;;15.80;4.10;;;;;;;8.10;100.00;100861.56;5225008;28;20474;-74
2023/01/10 10:05:02;;;;;;;17.40;3.85;;;;;;;8.08;100.00;100863.34;5224031;28;20029;-74
2023/01/10 10:07:33;;;;;;;18.73;4.30;;;;;;;7.87;100.00;100862.03;5221812;28;20490;-74
2023/01/10 10:10:17;;;;;;;18.90;3.80;;;;;;;7.85;100.00;100862.97;5206087;28;20122;-74
2023/01/10 10:13:01;;;;;;;17.20;3.83;;;;;;;7.99;100.00;100869.59;5220108;28;20115;-75
2023/01/10 10:16:07;;;;;;;18.60;4.32;;;;;;;7.84;100.00;100869.91;5222477;28;20048;-72
2023/01/10 10:18:52;;;;;;;19.15;4.15;;;;;;;7.84;100.00;100879.47;5141116;28;20069;-71
2023/01/10 10:21:42;;;;;;;11.57;3.92;;;;;;;7.82;100.00;100874.28;5224998;28;20021;-72
2023/01/10 10:24:32;;;;;;;13.85;3.63;;;;;;;7.79;100.00;100876.94;5224944;28;20025;-75
2023/01/10 10:27:15;;;;;;;17.05;3.35;;;;;;;7.62;100.00;100871.19;5227245;28;20116;-74
2023/01/10 10:30:00;;;;;;;16.95;3.70;;;;;;;7.68;100.00;100868.47;5209293;28;20028;-72
2023/01/10 10:32:52;;;;;;;19.35;3.67;;;;;;;7.72;100.00;100870.13;5225488;28;20037;-72
2023/01/10 10:35:37;;;;;;;12.65;2.97;;;;;;;7.79;100.00;100882.16;5223108;28;20732;-72
2023/01/10 10:38:13;;;;;;;20.67;4.23;;;;;;;7.87;100.00;100882.84;5226197;28;20044;-72
2023/01/10 10:40:45;;;;;;;;;;;;;;;7.73;100.00;100871.84;5225527;28;20283;-72
2023/01/10 10:43:20;;;;;;;14.48;3.25;;;;;;;7.79;100.00;100883.88;5224853;28;20007;-72
2023/01/10 10:45:56;;;;;;;18.75;3.42;;;;;;;7.76;100.00;100882.22;5221923;28;20036;-72
2023/01/10 10:48:30;;;;;;;15.63;3.60;;;;;;;7.83;100.00;100886.41;5228866;28;20099;-72
2023/01/10 10:51:13;;;;;;;15.52;3.40;;;;;;;7.95;100.00;100885.28;5223172;28;20049;-72
2023/01/10 10:53:45;;;;;;;14.45;3.65;;;;;;;8.00;100.00;100876.50;5223635;28;20160;-72
2023/01/10 10:56:20;;;;;;;18.48;3.97;;;;;;;7.92;100.00;100875.81;5221867;28;20025;-72
2023/01/10 10:58:54;;;;;;;16.45;3.25;;;;;;;8.05;100.00;100877.25;5227055;28;20417;-72
2023/01/10 11:01:25;;;;;;;15.85;3.35;;;;;;;7.97;100.00;100888.72;5233894;28;20478;-72
2023/01/10 11:04:04;;;;;;;16.05;3.67;;;;;;;7.90;100.00;100885.38;5222685;28;20418;-73
2023/01/10 11:06:37;;;;;;;15.95;3.75;;;;;;;7.84;100.00;100884.66;5223748;28;20031;-72
2023/01/10 11:09:07;;;;;;;19.42;4.00;;;;;;;7.84;100.00;100885.50;5220811;28;20060;-73
2023/01/10 11:11:44;;;;;;;18.40;3.97;;;;;;;7.82;100.00;100889.88;5229267;28;20029;-73
2023/01/10 11:14:14;;;;;;;14.82;3.85;;;;;;;7.77;100.00;100894.31;5222858;28;20036;-72
2023/01/10 11:16:45;;;;;;;20.55;4.07;;;;;;;7.89;100.00;100885.41;5224199;28;20099;-72
2023/01/10 11:19:23;;;;;;;17.25;3.70;;;;;;;7.78;100.00;100885.63;5227916;28;20063;-72
2023/01/10 11:21:59;;;;;;;17.13;4.63;;;;;;;7.85;100.00;100889.81;5221566;28;20040;-73
2023/01/10 11:24:38;;;;;;;19.70;4.35;;;;;;;8.01;100.00;100882.59;5220559;28;20044;-72
2023/01/10 11:27:17;;;;;;;20.35;4.50;;;;;;;8.05;100.00;100889.44;5206461;28;20039;-72
2023/01/10 11:29:55;;;;;;;14.95;4.07;;;;;;;8.00;100.00;100888.66;5220677;28;20028;-73
2023/01/10 11:32:38;;;;;;;15.73;4.55;;;;;;;8.04;100.00;100896.38;5226180;28;20414;-72
2023/01/10 11:35:19;;;;;;;14.38;3.50;;;;;;;8.03;100.00;100894.66;5204789;28;20074;-73
2023/01/10 11:38:20;;;;;;;15.95;3.50;;;;;;;8.02;100.00;100894.72;5221233;28;20020;-73
2023/01/10 11:40:55;;;;;;;19.63;4.05;;;;;;;8.14;100.00;100902.25;5210033;28;20051;-72
2023/01/10 11:43:37;;;;;;;13.05;3.25;;;;;;;8.13;100.00;100890.13;5222239;28;20433;-72
2023/01/10 11:46:24;;;;;;;21.48;3.65;;;;;;;8.18;100.00;100896.13;5220273;28;20032;-73
2023/01/10 11:48:57;;;;;;;18.40;3.53;;;;;;;8.14;100.00;100891.81;5203704;28;20320;-73
2023/01/10 11:51:32;;;;;;;18.42;4.35;;;;;;;8.17;100.00;100890.03;5222712;28;20032;-72
2023/01/10 11:54:12;;;;;;;16.77;4.05;;;;;;;8.12;100.00;100896.22;5222371;28;20104;-73
2023/01/10 11:56:54;;;;;;;14.77;3.85;;;;;;;8.21;100.00;100889.09;5223717;28;20063;-73
2023/01/10 11:59:26;;;;;;;19.38;3.95;;;;;;;8.36;100.00;100886.19;5225558;28;20017;-73
2023/01/10 12:02:17;;;;;;;18.75;4.18;;;;;;;8.46;100.00;100879.00;5226802;28;20025;-73